TimeCDT,TemperatureF,Dew PointF,Humidity,Sea Level PressureIn,VisibilityMPH,Wind Direction,Wind SpeedMPH,Gust SpeedMPH,PrecipitationIn,Events,Conditions,WindDirDegrees,DateUTC
12:52 AM,55.9,50.0,80,29.96,10.0,NNW,3.5,-,N/A,,Clear,340,2013-10-02 05:52:00
1:52 AM,54.0,48.9,83,29.96,10.0,NNW,4.6,-,N/A,,Clear,340,2013-10-02 06:52:00
2:52 AM,55.9,48.9,77,29.96,10.0,NNW,3.5,-,N/A,,Clear,340,2013-10-02 07:52:00
3:52 AM,54.0,48.9,83,29.95,10.0,NNW,3.5,-,N/A,,Clear,330,2013-10-02 08:52:00
4:52 AM,55.0,50.0,83,29.95,10.0,Calm,Calm,-,N/A,,Clear,0,2013-10-02 09:52:00
5:52 AM,55.0,50.0,83,29.95,10.0,WNW,3.5,-,N/A,,Clear,300,2013-10-02 10:52:00
6:52 AM,55.0,50.0,83,29.96,10.0,Calm,Calm,-,N/A,,Partly Cloudy,0,2013-10-02 11:52:00
7:52 AM,55.9,52.0,87,29.97,10.0,Calm,Calm,-,N/A,,Scattered Clouds,0,2013-10-02 12:52:00
8:52 AM,64.0,59.0,84,29.96,10.0,ESE,4.6,-,N/A,,Scattered Clouds,120,2013-10-02 13:52:00
9:52 AM,71.1,62.1,73,29.96,10.0,SSE,9.2,-,N/A,,Mostly Cloudy,160,2013-10-02 14:52:00
10:52 AM,73.9,63.0,68,29.94,10.0,SSE,11.5,-,N/A,,Mostly Cloudy,150,2013-10-02 15:52:00
11:52 AM,77.0,64.0,64,29.92,10.0,South,11.5,-,N/A,,Mostly Cloudy,170,2013-10-02 16:52:00
12:52 PM,82.0,61.0,49,29.90,10.0,South,13.8,-,N/A,,Scattered Clouds,180,2013-10-02 17:52:00
1:52 PM,84.0,61.0,46,29.88,10.0,South,13.8,25.3,N/A,,Mostly Cloudy,180,2013-10-02 18:52:00
2:52 PM,86.0,60.1,41,29.84,10.0,South,17.3,21.9,N/A,,Scattered Clouds,180,2013-10-02 19:52:00
3:52 PM,86.0,60.1,41,29.82,10.0,SSE,17.3,-,N/A,,Scattered Clouds,150,2013-10-02 20:52:00
4:52 PM,84.0,60.1,44,29.81,10.0,South,15.0,-,N/A,,Scattered Clouds,190,2013-10-02 21:52:00
5:52 PM,82.9,59.0,44,29.81,10.0,South,11.5,23.0,N/A,,Scattered Clouds,180,2013-10-02 22:52:00
6:52 PM,82.9,59.0,44,29.82,10.0,South,11.5,-,N/A,,Scattered Clouds,170,2013-10-02 23:52:00
7:52 PM,78.1,60.1,54,29.82,10.0,SSE,11.5,-,N/A,,Scattered Clouds,160,2013-10-03 00:52:00
8:52 PM,73.0,61.0,66,29.83,10.0,SSE,6.9,-,N/A,,Scattered Clouds,150,2013-10-03 01:52:00
9:52 PM,73.9,61.0,64,29.82,10.0,SSE,10.4,-,N/A,,Mostly Cloudy,160,2013-10-03 02:52:00
10:52 PM,73.0,62.1,68,29.81,10.0,South,13.8,-,N/A,,Mostly Cloudy,170,2013-10-03 03:52:00
11:52 PM,71.1,62.1,73,29.81,10.0,South,9.2,-,N/A,,Overcast,170,2013-10-03 04:52:00